Time;durP1;ratioP1;P1;durP2;ratioP2;P2;SDS_P1;SDS_P2;PMS_P1;PMS_P2;Temp;Humidity;BMP_temperature;BMP_pressure;BME280_temperature;BME280_humidity;BME280_pressure;Samples;Min_cycle;Max_cycle;Signal;HPM_P1;HPM_P2
2023/08/29 00:00:20;;;;;;;8.38;2.78;;;23.10;62.60;;;;;;5072416;28;20029;-54
2023/08/29 00:02:48;;;;;;;8.60;2.10;;;23.10;62.80;;;;;;5072482;28;20408;-52
2023/08/29 00:05:14;;;;;;;11.00;2.63;;;23.10;62.60;;;;;;5072446;28;20436;-53
2023/08/29 00:07:41;;;;;;;9.45;2.38;;;23.10;62.70;;;;;;5072129;28;20029;-54
2023/08/29 00:10:07;;;;;;;6.72;2.40;;;23.10;62.70;;;;;;5072140;28;20036;-46
2023/08/29 00:12:33;;;;;;;10.48;2.42;;;23.10;62.70;;;;;;5072108;28;20103;-54
2023/08/29 00:15:05;;;;;;;11.88;2.30;;;23.10;62.70;;;;;;5071732;28;20032;-53
2023/08/29 00:17:31;;;;;;;6.82;2.60;;;23.10;62.90;;;;;;5072058;28;20094;-54
2023/08/29 00:19:57;;;;;;;8.65;2.67;;;23.10;62.90;;;;;;5071887;28;20037;-52
2023/08/29 00:22:23;;;;;;;6.57;2.05;;;23.10;62.70;;;;;;5054085;28;20496;-50
2023/08/29 00:24:52;;;;;;;7.55;2.20;;;23.10;62.90;;;;;;5071695;28;20036;-53
2023/08/29 00:27:19;;;;;;;6.53;2.30;;;23.10;62.90;;;;;;5054671;28;20074;-46
2023/08/29 00:29:46;;;;;;;7.18;2.28;;;23.10;63.00;;;;;;5053928;28;20112;-49
2023/08/29 00:32:12;;;;;;;6.30;2.15;;;23.10;62.90;;;;;;5071786;28;20487;-48
2023/08/29 00:34:38;;;;;;;7.18;2.33;;;23.10;62.80;;;;;;5071282;28;20029;-49
2023/08/29 00:37:04;;;;;;;8.75;2.22;;;23.10;63.00;;;;;;5071659;28;20031;-54
2023/08/29 00:39:30;;;;;;;7.40;2.30;;;23.10;62.70;;;;;;5053842;28;20029;-52
2023/08/29 00:41:55;;;;;;;7.05;2.30;;;23.10;62.90;;;;;;5053358;28;20063;-53
2023/08/29 00:44:21;;;;;;;10.07;2.30;;;23.10;62.80;;;;;;5053605;28;20037;-47
2023/08/29 00:46:49;;;;;;;6.30;2.15;;;23.10;62.90;;;;;;5053890;28;20029;-53
2023/08/29 00:49:20;;;;;;;7.88;2.47;;;23.10;62.80;;;;;;5071425;28;20056;-52
2023/08/29 00:51:47;;;;;;;6.75;2.15;;;23.10;63.30;;;;;;5071533;28;20039;-46
2023/08/29 00:54:15;;;;;;;8.32;2.00;;;23.10;62.80;;;;;;5036812;28;20032;-49
2023/08/29 00:56:42;;;;;;;5.93;2.10;;;23.10;62.80;;;;;;5071412;28;20033;-52
2023/08/29 00:59:08;;;;;;;6.28;2.35;;;23.10;62.80;;;;;;5053542;28;20507;-46
2023/08/29 01:01:35;;;;;;;4.85;1.83;;;23.10;62.80;;;;;;5071487;28;20035;-49
2023/08/29 01:04:02;;;;;;;7.32;2.03;;;23.10;62.80;;;;;;5070968;28;20419;-50
2023/08/29 01:06:30;;;;;;;6.82;2.10;;;23.10;62.80;;;;;;5071598;28;20058;-46
2023/08/29 01:08:57;;;;;;;6.28;2.08;;;23.10;62.80;;;;;;5053525;28;20480;-51
2023/08/29 01:11:35;;;;;;;7.15;2.00;;;23.10;63.40;;;;;;5037033;28;20036;-53
2023/08/29 01:14:14;;;;;;;6.53;2.15;;;23.10;62.90;;;;;;5070977;28;20029;-51
2023/08/29 01:17:08;;;;;;;5.60;2.20;;;23.10;63.00;;;;;;5071424;28;20027;-54
2023/08/29 01:19:42;;;;;;;5.28;2.00;;;23.10;62.80;;;;;;5071199;28;20028;-53
2023/08/29 01:22:21;;;;;;;11.23;2.35;;;23.00;62.70;;;;;;5071281;28;20032;-54
2023/08/29 01:25:09;;;;;;;7.07;2.08;;;23.10;62.80;;;;;;5070813;28;20041;-48
2023/08/29 01:27:36;;;;;;;10.50;2.50;;;23.10;63.00;;;;;;5071243;28;20055;-54
2023/08/29 01:30:03;;;;;;;7.28;2.25;;;23.10;62.80;;;;;;5071020;28;20043;-52
2023/08/29 01:32:30;;;;;;;6.13;2.22;;;23.10;62.90;;;;;;5071013;28;20040;-53
2023/08/29 01:34:57;;;;;;;6.38;1.98;;;23.10;63.10;;;;;;5071148;28;20158;-53
2023/08/29 01:37:23;;;;;;;4.57;1.80;;;23.10;62.90;;;;;;5054237;28;20523;-49
2023/08/29 01:39:49;;;;;;;4.55;2.10;;;23.10;62.90;;;;;;5071504;28;20017;-51
2023/08/29 01:42:16;;;;;;;3.58;1.90;;;23.10;62.90;;;;;;5071280;28;20487;-46
2023/08/29 01:44:42;;;;;;;7.30;2.15;;;23.10;62.90;;;;;;5070907;28;20033;-46
2023/08/29 01:47:08;;;;;;;5.30;2.30;;;23.10;62.90;;;;;;5053230;28;20028;-46
2023/08/29 01:49:35;;;;;;;6.25;2.17;;;23.00;62.90;;;;;;5070892;28;20055;-46
2023/08/29 01:52:01;;;;;;;5.15;2.20;;;23.00;63.00;;;;;;5071028;28;20025;-46
2023/08/29 01:54:27;;;;;;;10.07;2.28;;;23.10;63.10;;;;;;5056559;28;20032;-46
2023/08/29 01:56:56;;;;;;;6.35;1.92;;;23.00;63.20;;;;;;5040442;28;20059;-46
2023/08/29 01:59:22;;;;;;;4.88;2.20;;;23.00;63.10;;;;;;5074689;28;20017;-47
2023/08/29 02:01:49;;;;;;;10.77;2.15;;;23.00;63.20;;;;;;5056777;28;20056;-48
2023/08/29 02:04:15;;;;;;;4.63;2.22;;;23.00;63.90;;;;;;5056355;28;20098;-46
2023/08/29 02:06:41;;;;;;;4.25;1.90;;;23.00;63.20;;;;;;5074392;28;20480;-46
2023/08/29 02:09:06;;;;;;;8.85;2.10;;;23.10;63.10;;;;;;5056584;28;20403;-46
2023/08/29 02:11:35;;;;;;;8.85;2.33;;;23.00;63.60;;;;;;5040164;28;20032;-47
2023/08/29 02:14:00;;;;;;;6.15;2.00;;;23.10;63.20;;;;;;5074086;28;20071;-46
2023/08/29 02:16:26;;;;;;;6.15;2.38;;;23.00;63.30;;;;;;5074558;28;20028;-46
2023/08/29 02:18:52;;;;;;;6.50;2.50;;;23.00;63.10;;;;;;5074271;28;20502;-46
2023/08/29 02:21:18;;;;;;;4.68;2.20;;;23.10;63.10;;;;;;5074274;28;20029;-48
2023/08/29 02:23:44;;;;;;;4.47;2.58;;;23.00;63.10;;;;;;5073895;28;20028;-47
2023/08/29 02:26:10;;;;;;;6.18;2.58;;;23.00;63.10;;;;;;5074208;28;20503;-47
2023/08/29 02:28:37;;;;;;;8.45;2.20;;;23.00;63.20;;;;;;5056312;28;20052;-48
2023/08/29 02:31:08;;;;;;;6.28;2.22;;;23.00;63.20;;;;;;5074072;28;20524;-46
2023/08/29 02:33:37;;;;;;;6.25;2.33;;;23.00;63.20;;;;;;5073786;28;20021;-48
2023/08/29 02:36:07;;;;;;;6.72;2.42;;;23.00;63.40;;;;;;5074030;28;20036;-48
2023/08/29 02:38:33;;;;;;;;;;;23.00;63.60;;;;;;5074588;28;20419;-48
2023/08/29 02:40:59;;;;;;;6.03;2.30;;;23.00;63.60;;;;;;5055952;28;20371;-47
2023/08/29 02:43:26;;;;;;;5.45;2.20;;;23.00;63.50;;;;;;5055669;28;20623;-46
2023/08/29 02:45:53;;;;;;;4.50;2.00;;;23.10;63.70;;;;;;5073785;28;20170;-47
2023/08/29 02:48:19;;;;;;;5.22;2.20;;;23.00;63.90;;;;;;5055926;28;20483;-46
2023/08/29 02:50:48;;;;;;;7.05;2.22;;;23.00;63.30;;;;;;5055750;28;20031;-47
2023/08/29 02:53:18;;;;;;;;;;;23.00;63.40;;;;;;5055972;28;20063;-49
2023/08/29 02:55:44;;;;;;;6.90;2.40;;;23.00;63.50;;;;;;5039088;28;20392;-47
2023/08/29 02:58:10;;;;;;;5.85;2.30;;;23.00;63.50;;;;;;5073604;28;20040;-46
2023/08/29 03:00:36;;;;;;;5.32;2.10;;;23.00;63.70;;;;;;5073615;28;20028;-47
2023/08/29 03:03:04;;;;;;;6.28;2.50;;;23.00;63.50;;;;;;5073001;28;20553;-47
2023/08/29 03:05:31;;;;;;;5.93;2.23;;;23.00;64.00;;;;;;5073477;28;20545;-51
2023/08/29 03:07:57;;;;;;;6.68;2.50;;;23.00;63.70;;;;;;5055553;28;20028;-48
2023/08/29 03:10:24;;;;;;;5.05;2.50;;;23.00;64.30;;;;;;5073170;28;20044;-46
2023/08/29 03:12:53;;;;;;;5.53;2.35;;;23.10;63.50;;;;;;5055368;28;20034;-47
2023/08/29 03:15:18;;;;;;;4.88;2.35;;;23.10;63.90;;;;;;5054988;28;20028;-52
2023/08/29 03:17:45;;;;;;;4.72;1.90;;;23.00;63.50;;;;;;5055322;28;20047;-47
2023/08/29 03:20:12;;;;;;;6.18;2.78;;;23.00;64.10;;;;;;5038847;28;20028;-51
2023/08/29 03:22:38;;;;;;;5.78;2.70;;;23.00;63.60;;;;;;5055509;28;20032;-50
2023/08/29 03:25:05;;;;;;;3.78;2.10;;;23.00;63.20;;;;;;5054893;28;20048;-54
2023/08/29 03:27:31;;;;;;;5.00;2.78;;;23.00;63.50;;;;;;5055178;28;20032;-51
2023/08/29 03:29:58;;;;;;;9.45;2.60;;;23.00;63.60;;;;;;5054920;28;20036;-50
2023/08/29 03:32:24;;;;;;;5.28;2.50;;;23.00;63.50;;;;;;5055077;28;20031;-51
2023/08/29 03:34:54;;;;;;;4.72;2.13;;;23.10;63.30;;;;;;5054675;28;20028;-47
2023/08/29 03:37:20;;;;;;;7.82;2.45;;;23.00;63.20;;;;;;5072832;28;20495;-46
2023/08/29 03:39:46;;;;;;;5.22;2.42;;;23.00;63.50;;;;;;5072782;28;20480;-48
2023/08/29 03:42:12;;;;;;;7.85;2.85;;;23.10;63.40;;;;;;5054918;28;20054;-49
2023/08/29 03:44:38;;;;;;;7.40;2.50;;;23.00;63.40;;;;;;5072349;28;20033;-52
2023/08/29 03:47:04;;;;;;;4.70;2.30;;;23.00;63.50;;;;;;5054742;28;20040;-49
2023/08/29 03:49:30;;;;;;;5.45;2.35;;;23.00;63.30;;;;;;5054637;28;20039;-46
2023/08/29 03:51:56;;;;;;;7.32;2.58;;;23.00;63.50;;;;;;5037581;28;20040;-50
2023/08/29 03:54:22;;;;;;;4.38;2.47;;;23.00;63.50;;;;;;5054224;28;20024;-49
2023/08/29 03:56:48;;;;;;;5.20;2.22;;;23.00;63.60;;;;;;5054450;28;20033;-47
2023/08/29 03:59:15;;;;;;;7.00;2.47;;;23.00;63.70;;;;;;5054420;28;20066;-48
2023/08/29 04:01:41;;;;;;;5.88;2.70;;;23.00;63.50;;;;;;5054667;28;20025;-46
2023/08/29 04:04:06;;;;;;;7.32;3.47;;;23.00;63.30;;;;;;5072151;28;20062;-54
2023/08/29 04:06:34;;;;;;;5.85;2.97;;;23.00;63.60;;;;;;5072248;28;20395;-54
2023/08/29 04:09:01;;;;;;;6.90;3.15;;;23.00;63.30;;;;;;5072247;28;20036;-54
2023/08/29 04:11:27;;;;;;;8.48;4.07;;;23.00;63.40;;;;;;5054130;28;20035;-51
2023/08/29 04:13:53;;;;;;;9.20;3.55;;;23.00;63.50;;;;;;5071774;28;20028;-51
2023/08/29 04:16:19;;;;;;;10.52;4.35;;;23.00;63.50;;;;;;5053511;28;20626;-53
2023/08/29 04:18:45;;;;;;;8.25;4.78;;;23.00;63.60;;;;;;5054198;28;20034;-51
2023/08/29 04:21:11;;;;;;;6.78;4.00;;;23.00;63.40;;;;;;5071933;28;20056;-50
2023/08/29 04:23:37;;;;;;;9.18;4.32;;;23.00;63.70;;;;;;5053899;28;20056;-52
2023/08/29 04:26:03;;;;;;;7.60;4.25;;;23.00;63.70;;;;;;5071593;28;20032;-51
2023/08/29 04:28:30;;;;;;;5.47;3.22;;;23.00;63.10;;;;;;5071926;28;20051;-53
2023/08/29 04:31:05;;;;;;;7.38;3.22;;;23.00;63.00;;;;;;5053948;28;20411;-51
2023/08/29 04:33:31;;;;;;;8.10;3.45;;;23.00;63.10;;;;;;5053795;28;20150;-50
2023/08/29 04:35:58;;;;;;;6.47;3.55;;;23.00;63.20;;;;;;5053934;28;20119;-46
2023/08/29 04:38:24;;;;;;;11.63;3.85;;;23.00;63.10;;;;;;5053774;28;20028;-46
2023/08/29 04:40:53;;;;;;;8.23;4.00;;;23.00;63.40;;;;;;5053746;28;20401;-46
2023/08/29 04:43:19;;;;;;;17.25;5.85;;;23.10;63.10;;;;;;5053584;28;20028;-46
2023/08/29 04:45:45;;;;;;;19.40;8.68;;;23.10;63.10;;;;;;5071717;28;20484;-48
2023/08/29 04:48:12;;;;;;;21.58;9.95;;;23.10;63.80;;;;;;5037380;28;20111;-45
2023/08/29 04:50:39;;;;;;;23.08;9.45;;;23.10;64.10;;;;;;5071513;28;20115;-53
2023/08/29 04:53:05;;;;;;;28.40;9.77;;;23.10;64.10;;;;;;5053485;28;20025;-52
2023/08/29 04:55:32;;;;;;;18.95;6.65;;;23.10;64.00;;;;;;5053601;28;20036;-50
2023/08/29 04:57:58;;;;;;;17.52;7.00;;;23.10;63.10;;;;;;5071490;28;20024;-48
2023/08/29 05:00:24;;;;;;;15.57;5.57;;;23.10;64.00;;;;;;5053481;28;20036;-49
2023/08/29 05:02:50;;;;;;;15.98;4.50;;;23.20;64.70;;;;;;5053596;28;20103;-48
2023/08/29 05:05:16;;;;;;;23.55;6.60;;;23.10;65.10;;;;;;5053360;28;20028;-47
2023/08/29 05:07:43;;;;;;;15.15;6.03;;;23.10;64.60;;;;;;5071475;28;20029;-45
2023/08/29 05:10:09;;;;;;;17.95;6.85;;;23.10;65.10;;;;;;5053356;28;20442;-45
2023/08/29 05:12:35;;;;;;;14.38;6.13;;;23.10;65.20;;;;;;5053495;28;20033;-46
2023/08/29 05:15:01;;;;;;;12.07;5.85;;;23.10;65.20;;;;;;5070959;28;20058;-50
2023/08/29 05:17:28;;;;;;;12.13;5.10;;;23.10;65.30;;;;;;5043110;28;20053;-48
2023/08/29 05:19:54;;;;;;;16.92;6.80;;;23.10;65.00;;;;;;5067672;28;20518;-48
2023/08/29 05:22:20;;;;;;;13.30;4.72;;;23.10;64.80;;;;;;5048596;28;20392;-50
2023/08/29 05:24:47;;;;;;;16.52;4.28;;;23.10;63.40;;;;;;5049913;28;20033;-50
2023/08/29 05:27:12;;;;;;;15.23;3.80;;;23.00;63.00;;;;;;5068591;28;20040;-50
2023/08/29 05:29:39;;;;;;;7.28;2.28;;;22.90;62.00;;;;;;5073098;28;20028;-49
2023/08/29 05:32:05;;;;;;;9.32;2.40;;;22.90;60.80;;;;;;5072720;28;20029;-48
2023/08/29 05:34:31;;;;;;;7.40;2.88;;;22.80;61.80;;;;;;5072564;28;20028;-47
2023/08/29 05:36:57;;;;;;;11.30;2.30;;;22.80;62.60;;;;;;5072626;28;20035;-45
2023/08/29 05:39:23;;;;;;;19.42;2.90;;;22.90;62.40;;;;;;5072659;28;20025;-47
2023/08/29 05:41:50;;;;;;;26.15;3.05;;;22.90;62.80;;;;;;5072876;28;20519;-45
2023/08/29 05:44:16;;;;;;;10.55;2.55;;;22.90;62.60;;;;;;5072280;28;20020;-52
2023/08/29 05:46:42;;;;;;;7.00;2.00;;;22.90;62.30;;;;;;5072738;28;20032;-50
2023/08/29 05:49:07;;;;;;;13.20;2.30;;;22.90;61.90;;;;;;5072023;28;20514;-50
2023/08/29 05:51:33;;;;;;;7.30;2.08;;;22.90;62.60;;;;;;5072442;28;20044;-48
2023/08/29 05:54:00;;;;;;;31.13;2.45;;;22.90;62.60;;;;;;5071954;28;20021;-47
2023/08/29 05:56:26;;;;;;;19.05;2.45;;;22.90;62.50;;;;;;5059604;28;20610;-52
2023/08/29 05:58:52;;;;;;;12.98;2.60;;;23.00;63.10;;;;;;5051053;28;20047;-51
2023/08/29 06:01:17;;;;;;;8.60;2.58;;;23.10;62.30;;;;;;5063746;28;20093;-50
2023/08/29 06:03:43;;;;;;;7.70;2.80;;;23.00;63.70;;;;;;5070460;28;20229;-48
2023/08/29 06:06:10;;;;;;;13.15;2.50;;;23.00;64.00;;;;;;5070934;28;20504;-51
2023/08/29 06:08:36;;;;;;;6.45;2.95;;;23.00;63.10;;;;;;5070910;28;20033;-48
2023/08/29 06:11:03;;;;;;;11.18;3.10;;;23.00;63.70;;;;;;5071674;28;20032;-52
2023/08/29 06:13:29;;;;;;;9.23;2.58;;;23.00;64.00;;;;;;5071511;28;20459;-48
2023/08/29 06:15:55;;;;;;;8.02;2.50;;;22.90;63.90;;;;;;5071766;28;20434;-45
2023/08/29 06:18:21;;;;;;;6.70;2.60;;;22.90;63.50;;;;;;5071695;28;20017;-47
2023/08/29 06:20:47;;;;;;;9.52;2.85;;;23.00;63.90;;;;;;5072061;28;20028;-48
2023/08/29 06:23:13;;;;;;;7.80;2.55;;;22.90;64.10;;;;;;5071726;28;20385;-48
2023/08/29 06:25:39;;;;;;;6.25;2.63;;;22.90;63.70;;;;;;5067503;28;20039;-49
2023/08/29 06:28:05;;;;;;;8.63;2.88;;;22.90;64.00;;;;;;5060588;28;20083;-47
2023/08/29 06:30:31;;;;;;;6.70;2.58;;;22.90;64.00;;;;;;5033956;28;20110;-52
2023/08/29 06:32:57;;;;;;;11.07;2.65;;;22.90;63.90;;;;;;5051988;28;20024;-53
2023/08/29 06:35:23;;;;;;;8.38;2.47;;;22.90;63.60;;;;;;5058359;28;20290;-50
2023/08/29 06:37:49;;;;;;;11.98;2.60;;;22.90;63.90;;;;;;5065058;28;20020;-52
2023/08/29 06:40:15;;;;;;;16.98;3.40;;;23.00;64.30;;;;;;5063083;28;20032;-46
2023/08/29 06:42:41;;;;;;;11.38;3.03;;;22.90;65.00;;;;;;5063724;28;20534;-48
2023/08/29 06:45:08;;;;;;;13.55;2.80;;;23.00;65.10;;;;;;5052747;28;20025;-52
2023/08/29 06:47:33;;;;;;;14.63;2.88;;;22.90;64.80;;;;;;5050573;28;20033;-50
2023/08/29 06:50:00;;;;;;;9.43;2.83;;;22.90;64.70;;;;;;5033742;28;20526;-51
2023/08/29 06:52:29;;;;;;;5.72;2.80;;;22.90;64.50;;;;;;5041492;28;20455;-51
2023/08/29 06:54:54;;;;;;;6.13;2.43;;;22.90;64.40;;;;;;5050855;28;20028;-48
2023/08/29 06:57:20;;;;;;;10.88;2.95;;;23.00;64.70;;;;;;5059111;28;20636;-45
2023/08/29 06:59:46;;;;;;;8.05;2.33;;;23.00;64.70;;;;;;5051479;28;20029;-45
2023/08/29 07:02:12;;;;;;;5.55;2.28;;;22.90;64.70;;;;;;5052044;28;20032;-48
2023/08/29 07:04:38;;;;;;;13.18;2.80;;;23.00;64.70;;;;;;5051215;28;20037;-49
2023/08/29 07:07:04;;;;;;;8.10;2.55;;;22.90;64.70;;;;;;5051812;28;20447;-48
2023/08/29 07:09:30;;;;;;;6.72;2.90;;;22.90;64.60;;;;;;5051404;28;20028;-51
2023/08/29 07:11:57;;;;;;;5.72;2.50;;;22.90;64.50;;;;;;5051176;28;20044;-51
2023/08/29 07:14:23;;;;;;;14.57;3.10;;;22.90;64.20;;;;;;5058071;28;20059;-48
2023/08/29 07:16:48;;;;;;;6.30;2.47;;;22.90;64.40;;;;;;5051129;28;20020;-52
2023/08/29 07:19:14;;;;;;;9.77;2.70;;;23.00;64.50;;;;;;5051079;28;20024;-52
2023/08/29 07:21:40;;;;;;;7.60;2.90;;;22.90;64.40;;;;;;5051329;28;20500;-54
2023/08/29 07:24:06;;;;;;;5.60;2.53;;;23.00;64.40;;;;;;5050849;28;20021;-53
2023/08/29 07:26:32;;;;;;;8.57;3.13;;;23.00;64.40;;;;;;5051256;28;20029;-54
2023/08/29 07:28:57;;;;;;;9.18;2.95;;;23.00;64.40;;;;;;5051143;28;20099;-53
2023/08/29 07:31:23;;;;;;;6.82;2.80;;;23.00;64.30;;;;;;5058460;28;20032;-54
2023/08/29 07:33:49;;;;;;;7.53;2.67;;;23.00;64.40;;;;;;5050440;28;20033;-53
2023/08/29 07:36:15;;;;;;;7.30;2.70;;;23.00;64.30;;;;;;5050870;28;20413;-54
2023/08/29 07:38:42;;;;;;;5.28;2.50;;;23.00;64.30;;;;;;5032993;28;20036;-53
2023/08/29 07:41:08;;;;;;;8.20;2.75;;;23.00;64.30;;;;;;5049875;28;20416;-54
2023/08/29 07:43:33;;;;;;;6.07;2.92;;;23.00;64.30;;;;;;5050419;28;20033;-54
2023/08/29 07:46:00;;;;;;;5.93;2.63;;;23.00;64.30;;;;;;5050939;28;20025;-54
2023/08/29 07:48:26;;;;;;;8.23;2.90;;;23.00;64.30;;;;;;5050562;28;20033;-54
2023/08/29 07:50:52;;;;;;;8.02;2.85;;;23.00;64.30;;;;;;5050962;28;20070;-52
2023/08/29 07:53:18;;;;;;;7.15;2.85;;;23.00;64.30;;;;;;5050507;28;20110;-52
2023/08/29 07:55:44;;;;;;;5.25;2.60;;;23.00;64.30;;;;;;5049030;28;20036;-53
2023/08/29 07:58:10;;;;;;;5.60;2.47;;;23.00;64.30;;;;;;5050740;28;20049;-53
2023/08/29 08:00:36;;;;;;;7.82;2.67;;;23.00;64.30;;;;;;5050739;28;20098;-47
2023/08/29 08:03:03;;;;;;;5.90;2.75;;;23.00;64.40;;;;;;5050427;28;20186;-51
2023/08/29 08:05:30;;;;;;;6.78;2.80;;;23.00;64.40;;;;;;5050073;28;20439;-49
2023/08/29 08:07:56;;;;;;;9.77;2.85;;;23.00;64.40;;;;;;5032429;28;20033;-53
2023/08/29 08:10:22;;;;;;;5.38;2.60;;;23.00;64.50;;;;;;5050060;28;20025;-51
2023/08/29 08:12:49;;;;;;;6.65;3.00;;;23.00;64.40;;;;;;5050312;28;20029;-51
2023/08/29 08:15:16;;;;;;;6.00;2.60;;;22.90;64.40;;;;;;5049521;28;20028;-49
2023/08/29 08:17:43;;;;;;;6.75;2.75;;;23.00;64.60;;;;;;5050080;28;20033;-48
2023/08/29 08:20:09;;;;;;;7.43;3.00;;;23.00;64.60;;;;;;5049775;28;20124;-52
2023/08/29 08:22:40;;;;;;;9.55;2.70;;;23.00;64.60;;;;;;5050219;28;20059;-47
2023/08/29 08:25:07;;;;;;;7.18;2.83;;;23.00;64.60;;;;;;5049308;28;20078;-52
2023/08/29 08:27:34;;;;;;;6.80;3.10;;;22.90;64.50;;;;;;5052520;28;20032;-48
2023/08/29 08:30:00;;;;;;;7.40;2.75;;;22.90;64.50;;;;;;5057521;28;20545;-46
2023/08/29 08:32:26;;;;;;;6.38;3.10;;;23.00;64.60;;;;;;5058001;28;20032;-49
2023/08/29 08:34:54;;;;;;;6.22;2.75;;;22.90;64.60;;;;;;5057541;28;20049;-49
2023/08/29 08:37:20;;;;;;;5.88;3.00;;;22.90;64.60;;;;;;5061164;28;20021;-47
2023/08/29 08:39:46;;;;;;;5.63;2.88;;;22.90;64.60;;;;;;5061009;28;20368;-46
2023/08/29 08:42:12;;;;;;;7.07;2.80;;;23.00;64.60;;;;;;5056081;28;20016;-51
2023/08/29 08:44:39;;;;;;;3.97;2.65;;;22.90;64.50;;;;;;5055010;28;20431;-49
2023/08/29 08:47:06;;;;;;;6.75;2.88;;;22.90;64.60;;;;;;5059390;28;20585;-50
2023/08/29 08:49:32;;;;;;;5.90;2.70;;;22.90;64.60;;;;;;5060838;28;20484;-47
2023/08/29 08:51:58;;;;;;;6.40;3.10;;;23.00;65.20;;;;;;5060547;28;20031;-48
2023/08/29 08:54:27;;;;;;;6.18;2.65;;;22.90;64.50;;;;;;5057265;28;20032;-46
2023/08/29 08:56:57;;;;;;;5.32;2.88;;;22.90;64.50;;;;;;5057349;28;20559;-49
2023/08/29 08:59:24;;;;;;;4.68;2.67;;;22.90;64.50;;;;;;5053290;28;20028;-52
2023/08/29 09:01:50;;;;;;;6.25;3.00;;;22.90;64.60;;;;;;5060483;28;20526;-52
2023/08/29 09:04:16;;;;;;;5.93;2.92;;;22.90;65.10;;;;;;5057576;28;20033;-52
2023/08/29 09:06:42;;;;;;;5.45;2.90;;;22.90;64.60;;;;;;5057394;28;20111;-51
2023/08/29 09:09:21;;;;;;;5.60;2.72;;;22.90;64.60;;;;;;5059226;28;20028;-52
2023/08/29 09:11:55;;;;;;;6.18;3.15;;;22.90;64.50;;;;;;5060792;28;20040;-54
2023/08/29 09:14:22;;;;;;;7.75;2.70;;;22.90;64.50;;;;;;5052605;28;20112;-54
2023/08/29 09:16:56;;;;;;;5.03;3.00;;;22.90;64.40;;;;;;5060721;28;20477;-50
2023/08/29 09:19:22;;;;;;;4.93;2.85;;;22.90;64.30;;;;;;5053097;28;20488;-50
2023/08/29 09:21:49;;;;;;;5.38;2.55;;;22.90;64.40;;;;;;5060656;28;20492;-50
2023/08/29 09:24:27;;;;;;;6.40;2.78;;;22.90;64.40;;;;;;5057641;28;20068;-52
2023/08/29 09:26:53;;;;;;;4.43;2.75;;;23.00;64.40;;;;;;5057241;28;20064;-52
2023/08/29 09:29:20;;;;;;;5.00;2.90;;;22.90;64.30;;;;;;5052059;28;20067;-54
2023/08/29 09:31:47;;;;;;;5.35;2.90;;;22.90;64.30;;;;;;5060395;28;20028;-51
2023/08/29 09:34:27;;;;;;;7.25;2.85;;;22.90;64.30;;;;;;5057944;28;20049;-54
2023/08/29 09:36:54;;;;;;;6.57;2.92;;;22.90;64.30;;;;;;5057047;28;20029;-52
2023/08/29 09:39:21;;;;;;;5.00;2.30;;;22.90;64.30;;;;;;5052389;28;20032;-53
2023/08/29 09:42:00;;;;;;;5.70;3.20;;;22.90;64.30;;;;;;5060573;28;20020;-53
2023/08/29 09:44:27;;;;;;;5.10;2.40;;;22.90;64.30;;;;;;5052992;28;20492;-53
2023/08/29 09:46:53;;;;;;;5.28;2.42;;;22.90;64.30;;;;;;5060360;28;20036;-54
2023/08/29 09:49:19;;;;;;;4.15;2.67;;;22.90;64.20;;;;;;5056843;28;20511;-51
2023/08/29 09:51:46;;;;;;;5.32;2.78;;;22.90;64.20;;;;;;5059357;28;20028;-55
2023/08/29 09:54:17;;;;;;;4.50;2.45;;;22.90;64.10;;;;;;5057285;28;20052;-54
2023/08/29 09:56:43;;;;;;;5.40;2.60;;;22.90;64.10;;;;;;5056910;28;20127;-54
2023/08/29 09:59:13;;;;;;;9.52;2.50;;;22.90;64.40;;;;;;5063950;28;20460;-51
2023/08/29 10:01:40;;;;;;;;;;;23.00;64.20;;;;;;5060744;28;20039;-53
2023/08/29 10:04:11;;;;;;;5.78;2.30;;;22.90;64.30;;;;;;5066494;28;19947;-54
2023/08/29 10:06:40;;;;;;;4.40;2.42;;;23.00;64.20;;;;;;5062436;28;20029;-54
2023/08/29 10:09:06;;;;;;;;;;;22.90;64.00;;;;;;5067284;28;20343;-54
2023/08/29 10:11:33;;;;;;;6.18;2.50;;;22.90;64.10;;;;;;5059994;28;19916;-54
2023/08/29 10:13:59;;;;;;;6.25;3.03;;;22.90;64.10;;;;;;5060395;28;20124;-49
2023/08/29 10:16:26;;;;;;;5.20;2.47;;;22.90;64.10;;;;;;5060243;28;20552;-54
2023/08/29 10:18:55;;;;;;;4.68;2.28;;;22.90;64.20;;;;;;5060410;28;20456;-50
2023/08/29 10:21:21;;;;;;;3.57;2.10;;;22.90;64.10;;;;;;5064094;28;20066;-54
2023/08/29 10:23:51;;;;;;;6.30;2.90;;;22.90;64.10;;;;;;5071813;28;20059;-54
2023/08/29 10:26:17;;;;;;;6.38;2.40;;;22.90;64.10;;;;;;5054274;28;20471;-50
2023/08/29 10:28:46;;;;;;;4.47;2.30;;;22.90;64.10;;;;;;5071844;28;20036;-51
2023/08/29 10:31:12;;;;;;;7.72;2.60;;;22.90;64.30;;;;;;5053947;28;20032;-50
2023/08/29 10:33:38;;;;;;;5.95;2.30;;;22.90;64.60;;;;;;5069554;28;20040;-51
2023/08/29 10:36:08;;;;;;;10.82;2.90;;;22.90;64.40;;;;;;5070892;28;20460;-50
2023/08/29 10:38:39;;;;;;;9.57;2.50;;;22.90;64.80;;;;;;5071436;28;20506;-51
2023/08/29 10:41:09;;;;;;;9.80;2.42;;;22.90;64.60;;;;;;5070880;28;20021;-46
2023/08/29 10:43:35;;;;;;;18.90;3.47;;;22.90;64.50;;;;;;5071619;28;20029;-45
2023/08/29 10:46:10;;;;;;;11.18;2.83;;;22.90;64.60;;;;;;5071802;28;20028;-50
2023/08/29 10:48:42;;;;;;;7.45;2.30;;;22.90;64.50;;;;;;5070997;28;20029;-51
2023/08/29 10:51:08;;;;;;;8.82;2.72;;;22.90;64.60;;;;;;5070884;28;20361;-53
2023/08/29 10:53:38;;;;;;;11.30;2.75;;;22.90;65.00;;;;;;5071249;28;20102;-53
2023/08/29 10:56:08;;;;;;;13.65;2.63;;;22.90;64.80;;;;;;5071522;28;20476;-50
2023/08/29 10:58:35;;;;;;;14.70;2.70;;;22.90;65.20;;;;;;5071500;28;20108;-51
2023/08/29 11:01:02;;;;;;;15.60;2.97;;;22.90;64.70;;;;;;5071424;28;20021;-54
2023/08/29 11:03:51;;;;;;;10.40;2.70;;;22.90;64.60;;;;;;5070845;28;20107;-51
2023/08/29 11:06:44;;;;;;;15.40;3.33;;;22.90;64.50;;;;;;5071258;28;20024;-54
2023/08/29 11:09:21;;;;;;;8.43;3.15;;;22.90;64.60;;;;;;5070768;28;20107;-51
2023/08/29 11:12:09;;;;;;;8.85;2.83;;;22.90;64.40;;;;;;5082742;22;20047;-55
2023/08/29 11:14:57;;;;;;;7.00;2.70;;;22.80;64.40;;;;;;5038153;28;20435;-55
2023/08/29 11:17:24;;;;;;;7.03;2.70;;;22.80;64.30;;;;;;5063229;28;20506;-55
2023/08/29 11:19:58;;;;;;;12.13;2.90;;;22.90;64.40;;;;;;5046509;28;20029;-55
2023/08/29 11:22:26;;;;;;;10.02;2.60;;;22.90;64.50;;;;;;5059958;28;20404;-54
2023/08/29 11:24:56;;;;;;;9.68;2.58;;;22.90;64.40;;;;;;5070486;28;20495;-53
2023/08/29 11:27:28;;;;;;;18.08;2.47;;;22.90;64.40;;;;;;5062910;28;20078;-53
2023/08/29 11:29:54;;;;;;;12.32;3.20;;;22.90;64.90;;;;;;5070337;28;20489;-52
2023/08/29 11:32:20;;;;;;;8.70;3.10;;;22.90;64.80;;;;;;5070702;28;20060;-51
2023/08/29 11:34:52;;;;;;;8.05;3.60;;;22.90;64.80;;;;;;5070178;28;20119;-48
2023/08/29 11:37:18;;;;;;;10.32;3.22;;;22.90;64.70;;;;;;5070611;28;20495;-54
2023/08/29 11:39:58;;;;;;;9.32;3.47;;;22.90;64.70;;;;;;5052574;28;20086;-48
2023/08/29 11:42:28;;;;;;;8.40;3.45;;;22.90;64.70;;;;;;5045131;28;20056;-54
2023/08/29 11:44:54;;;;;;;7.43;3.75;;;22.90;64.60;;;;;;5070300;28;20035;-53
2023/08/29 11:47:22;;;;;;;14.77;4.93;;;22.90;65.20;;;;;;5052302;28;20028;-53
2023/08/29 11:49:51;;;;;;;15.55;4.70;;;22.90;64.60;;;;;;5070428;28;20108;-53
2023/08/29 11:52:17;;;;;;;16.35;4.78;;;22.90;64.60;;;;;;5070282;28;20500;-53
2023/08/29 11:54:48;;;;;;;14.00;5.13;;;22.90;64.50;;;;;;5070325;28;20024;-52
2023/08/29 11:57:15;;;;;;;11.68;4.75;;;22.90;64.50;;;;;;5070218;28;21556;-52
2023/08/29 11:59:42;;;;;;;11.77;4.50;;;22.90;64.40;;;;;;5070228;28;20551;-50
2023/08/29 12:02:14;;;;;;;12.13;4.32;;;22.90;64.40;;;;;;5070036;28;20074;-50
2023/08/29 12:04:41;;;;;;;9.55;4.40;;;22.90;64.40;;;;;;5070055;28;20024;-51
2023/08/29 12:07:11;;;;;;;12.80;4.75;;;22.90;64.40;;;;;;5069986;28;20040;-50
2023/08/29 12:09:39;;;;;;;11.38;4.35;;;22.90;64.30;;;;;;5069856;28;20036;-50
2023/08/29 12:12:09;;;;;;;13.30;4.40;;;22.90;64.30;;;;;;5052153;28;20455;-53
2023/08/29 12:14:50;;;;;;;;;;;22.90;64.30;;;;;;5069860;28;20145;-54
2023/08/29 12:17:16;;;;;;;15.30;4.10;;;22.90;64.30;;;;;;5052040;28;20327;-54
2023/08/29 12:19:42;;;;;;;21.83;5.05;;;22.90;64.30;;;;;;5069669;28;20113;-50
2023/08/29 12:22:08;;;;;;;12.40;4.40;;;22.90;64.30;;;;;;5069624;28;20499;-52
2023/08/29 12:24:33;;;;;;;12.98;5.00;;;22.90;64.30;;;;;;5069438;28;20131;-55
2023/08/29 12:26:59;;;;;;;10.43;4.43;;;22.90;64.30;;;;;;5069549;28;20036;-55
2023/08/29 12:29:25;;;;;;;10.25;4.20;;;22.90;64.30;;;;;;5069541;28;20024;-55
2023/08/29 12:31:51;;;;;;;13.63;4.88;;;22.90;64.40;;;;;;5031931;28;20496;-55
2023/08/29 12:34:17;;;;;;;14.35;5.32;;;22.90;64.30;;;;;;5068666;28;20024;-50
2023/08/29 12:36:42;;;;;;;12.38;5.00;;;22.90;64.40;;;;;;5068915;28;20404;-52
2023/08/29 12:39:09;;;;;;;11.63;5.18;;;22.90;64.30;;;;;;5033655;28;20033;-53
2023/08/29 12:41:36;;;;;;;10.05;4.90;;;22.90;64.30;;;;;;5069242;28;20021;-54
2023/08/29 12:44:03;;;;;;;11.77;4.97;;;22.90;64.30;;;;;;5068919;28;20438;-55
2023/08/29 12:46:30;;;;;;;11.55;4.93;;;22.90;64.30;;;;;;5069467;28;20021;-51